createdAt,value
2024-04-26T00:00:01.951Z,1.62
2024-04-26T00:02:31.182Z,1.62
2024-04-26T00:04:58.919Z,1.60
2024-04-26T00:07:26.628Z,1.58
2024-04-26T00:09:55.021Z,1.55
2024-04-26T00:12:22.662Z,1.53
2024-04-26T00:14:50.961Z,1.50
2024-04-26T00:17:18.537Z,1.49
2024-04-26T00:19:46.262Z,1.49
2024-04-26T00:22:13.863Z,1.51
2024-04-26T00:24:41.395Z,1.53
2024-04-26T00:27:10.151Z,1.52
2024-04-26T00:29:38.240Z,1.50
2024-04-26T00:32:06.024Z,1.46
2024-04-26T00:34:33.596Z,1.42
2024-04-26T00:37:01.183Z,1.38
2024-04-26T00:39:28.899Z,1.33
2024-04-26T00:41:56.616Z,1.32
2024-04-26T00:44:24.230Z,1.32
2024-04-26T00:46:51.949Z,1.31
2024-04-26T00:49:20.525Z,1.33
2024-04-26T00:51:48.971Z,1.30
2024-04-26T00:54:20.149Z,1.28
2024-04-26T00:56:49.710Z,1.27
2024-04-26T00:59:18.372Z,1.25
2024-04-26T01:01:46.155Z,1.26
2024-04-26T01:04:13.898Z,1.28
2024-04-26T01:06:42.600Z,1.27
2024-04-26T01:09:10.946Z,1.25
2024-04-26T01:11:38.954Z,1.25
2024-04-26T01:14:07.533Z,1.25
2024-04-26T01:16:35.310Z,1.24
2024-04-26T01:19:04.390Z,1.24
2024-04-26T01:21:34.621Z,1.22
2024-04-26T01:24:04.538Z,1.19
2024-04-26T01:26:32.678Z,1.14
2024-04-26T01:29:00.710Z,1.09
2024-04-26T01:31:28.317Z,1.05
2024-04-26T01:33:56.077Z,0.99
2024-04-26T01:36:23.691Z,0.95
2024-04-26T01:38:51.340Z,0.94
2024-04-26T01:41:18.990Z,0.92
2024-04-26T01:43:46.643Z,0.91
2024-04-26T01:46:14.266Z,0.87
2024-04-26T01:48:42.100Z,0.86
2024-04-26T01:51:09.757Z,0.83
2024-04-26T01:53:37.448Z,0.83
2024-04-26T01:56:05.417Z,0.81
2024-04-26T01:58:36.169Z,0.78
2024-04-26T02:01:03.928Z,0.75
2024-04-26T02:03:31.727Z,0.73
2024-04-26T02:05:59.896Z,0.70
2024-04-26T02:08:27.894Z,0.64
2024-04-26T02:10:55.635Z,0.54
2024-04-26T02:13:23.394Z,0.47
2024-04-26T02:15:51.034Z,0.41
2024-04-26T02:18:19.644Z,0.34
2024-04-26T02:20:47.336Z,0.30
2024-04-26T02:23:14.962Z,0.27
2024-04-26T02:25:42.553Z,0.23
2024-04-26T02:28:10.169Z,0.19
2024-04-26T02:30:37.940Z,0.18
2024-04-26T02:33:06.456Z,0.18
2024-04-26T02:35:34.197Z,0.16
2024-04-26T02:38:01.846Z,0.16
2024-04-26T02:40:29.475Z,0.17
2024-04-26T02:42:57.165Z,0.19
2024-04-26T02:45:24.760Z,0.19
2024-04-26T02:47:52.582Z,0.20
2024-04-26T02:50:20.443Z,0.19
2024-04-26T02:52:48.013Z,0.17
2024-04-26T02:55:15.574Z,0.16
2024-04-26T02:57:43.145Z,0.17
2024-04-26T03:00:11.184Z,0.18
2024-04-26T03:02:39.124Z,0.18
2024-04-26T03:05:06.904Z,0.15
2024-04-26T03:07:34.491Z,0.13
2024-04-26T03:10:02.200Z,0.13
2024-04-26T03:12:29.961Z,0.12
2024-04-26T03:14:57.672Z,0.10
2024-04-26T03:17:25.935Z,0.08
2024-04-26T03:19:53.874Z,0.08
2024-04-26T03:22:21.462Z,0.07
2024-04-26T03:24:49.011Z,0.06
2024-04-26T03:27:16.588Z,0.06
2024-04-26T03:29:44.287Z,0.06
2024-04-26T03:32:11.959Z,0.08
2024-04-26T03:34:39.581Z,0.09
2024-04-26T03:37:07.239Z,0.11
2024-04-26T03:39:34.832Z,0.15
2024-04-26T03:42:02.636Z,0.20
2024-04-26T03:44:30.398Z,0.23
2024-04-26T03:46:57.960Z,0.26
2024-04-26T03:49:25.812Z,0.30
2024-04-26T03:51:53.770Z,0.33
2024-04-26T03:54:21.407Z,0.40
2024-04-26T03:56:49.050Z,0.48
2024-04-26T03:59:16.647Z,0.56
2024-04-26T04:01:44.353Z,0.64
2024-04-26T04:04:12.109Z,0.71
2024-04-26T04:06:39.998Z,0.82
2024-04-26T04:09:07.882Z,0.94
2024-04-26T04:11:35.943Z,1.06
2024-04-26T04:14:03.506Z,1.16
2024-04-26T04:16:31.047Z,1.23
2024-04-26T04:18:58.700Z,1.29
2024-04-26T04:21:26.966Z,1.36
2024-04-26T04:23:54.703Z,1.46
2024-04-26T04:26:22.406Z,1.55
2024-04-26T04:28:50.125Z,1.66
2024-04-26T04:31:17.714Z,1.77
2024-04-26T04:33:45.682Z,1.87
2024-04-26T04:36:13.442Z,1.99
2024-04-26T04:38:41.147Z,2.13
2024-04-26T04:41:08.771Z,2.23
2024-04-26T04:43:36.290Z,2.29
2024-04-26T04:46:06.004Z,2.34
2024-04-26T04:48:33.992Z,2.45
2024-04-26T04:51:01.660Z,2.57
2024-04-26T04:53:29.315Z,2.67
2024-04-26T04:55:56.927Z,2.76
2024-04-26T04:58:24.472Z,2.85
2024-04-26T05:00:52.416Z,2.93
2024-04-26T05:03:20.246Z,3.03
2024-04-26T05:05:48.132Z,3.16
2024-04-26T05:08:16.095Z,3.28
2024-04-26T05:10:43.940Z,3.40
2024-04-26T05:13:11.531Z,3.53
2024-04-26T05:15:39.235Z,3.66
2024-04-26T05:18:07.335Z,3.78
2024-04-26T05:20:35.002Z,3.91
2024-04-26T05:23:02.848Z,4.03
2024-04-26T05:25:30.738Z,4.17
2024-04-26T05:27:58.313Z,4.29
2024-04-26T05:30:25.877Z,4.40
2024-04-26T05:32:53.645Z,4.51
2024-04-26T05:35:21.391Z,4.63
2024-04-26T05:37:49.579Z,4.77
2024-04-26T05:40:17.171Z,4.92
2024-04-26T05:42:44.723Z,5.03
2024-04-26T05:45:31.167Z,5.15
2024-04-26T05:47:58.900Z,5.27
2024-04-26T05:50:26.817Z,5.39
2024-04-26T05:52:54.350Z,5.51
2024-04-26T05:55:22.112Z,5.62
2024-04-26T05:57:49.761Z,5.75
2024-04-26T06:00:17.824Z,5.85
2024-04-26T06:02:45.523Z,5.94
2024-04-26T06:05:13.335Z,6.05
2024-04-26T06:07:41.135Z,6.16
2024-04-26T06:10:08.890Z,6.31
2024-04-26T06:12:36.618Z,6.47
2024-04-26T06:15:04.613Z,6.64
2024-04-26T06:17:32.546Z,6.76
2024-04-26T06:20:00.524Z,6.88
2024-04-26T06:22:28.452Z,7.02
2024-04-26T06:24:56.033Z,7.15
2024-04-26T06:27:23.726Z,7.29
2024-04-26T06:29:51.449Z,7.43
2024-04-26T06:32:19.397Z,7.57
2024-04-26T06:34:47.187Z,7.70
2024-04-26T06:37:14.852Z,7.83
2024-04-26T06:39:42.377Z,7.97
2024-04-26T06:42:10.309Z,8.13
2024-04-26T06:44:37.930Z,8.29
2024-04-26T06:47:05.757Z,8.44
2024-04-26T06:49:33.528Z,8.59
2024-04-26T06:52:01.619Z,8.71
2024-04-26T06:54:29.277Z,8.81
2024-04-26T06:56:57.217Z,8.93
2024-04-26T06:59:25.079Z,9.06
2024-04-26T07:01:52.960Z,9.18
2024-04-26T07:04:21.037Z,9.28
2024-04-26T07:06:48.790Z,9.37
2024-04-26T07:09:16.432Z,9.47
2024-04-26T07:11:45.110Z,9.50
2024-04-26T07:14:13.537Z,9.57
2024-04-26T07:16:41.103Z,9.67
2024-04-26T07:19:08.875Z,9.79
2024-04-26T07:21:36.727Z,9.85
2024-04-26T07:24:04.853Z,9.92
2024-04-26T07:26:32.983Z,10.02
2024-04-26T07:29:11.632Z,10.11
2024-04-26T07:31:46.995Z,10.19
2024-04-26T07:34:14.803Z,10.28
2024-04-26T07:36:43.426Z,10.25
2024-04-26T07:39:11.068Z,10.30
2024-04-26T07:41:38.762Z,10.34
2024-04-26T07:44:07.211Z,10.32
2024-04-26T07:46:34.949Z,10.35
2024-04-26T07:49:04.598Z,10.36
2024-04-26T07:51:32.934Z,10.41
2024-04-26T07:54:00.544Z,10.47
2024-04-26T07:56:28.356Z,10.58
2024-04-26T07:58:55.995Z,10.61
2024-04-26T08:01:26.556Z,10.65
2024-04-26T08:03:54.471Z,10.73
2024-04-26T08:06:22.433Z,10.78
2024-04-26T08:08:50.552Z,10.80
2024-04-26T08:11:18.456Z,10.86
2024-04-26T08:13:46.066Z,10.97
2024-04-26T08:16:13.688Z,11.09
2024-04-26T08:18:41.517Z,11.21
2024-04-26T08:21:09.261Z,11.35
2024-04-26T08:23:36.987Z,11.46
2024-04-26T08:26:07.542Z,11.47
2024-04-26T08:28:36.066Z,11.55
2024-04-26T08:31:03.680Z,11.67
2024-04-26T08:33:31.790Z,11.80
2024-04-26T08:35:59.832Z,11.94
2024-04-26T08:38:27.822Z,12.08
2024-04-26T08:40:55.964Z,12.24
2024-04-26T08:43:23.724Z,12.45
2024-04-26T08:45:54.677Z,12.66
2024-04-26T08:48:24.167Z,12.88
2024-04-26T08:50:55.977Z,12.86
2024-04-26T08:53:25.139Z,12.85
2024-04-26T08:55:53.046Z,12.97
2024-04-26T08:58:21.743Z,12.95
2024-04-26T09:00:51.440Z,12.62
2024-04-26T09:03:22.445Z,12.49
2024-04-26T09:05:53.487Z,12.61
2024-04-26T09:08:21.173Z,12.60
2024-04-26T09:10:48.742Z,12.68
2024-04-26T09:13:17.321Z,12.98
2024-04-26T09:15:45.105Z,13.35
2024-04-26T09:18:12.888Z,13.50
2024-04-26T09:20:40.729Z,13.72
2024-04-26T09:23:08.426Z,14.03
2024-04-26T09:25:37.279Z,14.22
2024-04-26T09:28:05.420Z,14.32
2024-04-26T09:30:33.241Z,14.63
2024-04-26T09:33:02.020Z,14.99
2024-04-26T09:35:33.580Z,15.35
2024-04-26T09:38:04.021Z,15.59
2024-04-26T09:40:32.556Z,15.54
2024-04-26T09:43:01.733Z,15.40
2024-04-26T09:45:29.548Z,15.33
2024-04-26T09:47:57.243Z,15.27
2024-04-26T09:50:26.648Z,15.41
2024-04-26T09:52:56.616Z,15.83
2024-04-26T09:55:25.632Z,16.67
2024-04-26T09:57:54.446Z,17.36
2024-04-26T10:00:23.502Z,17.37
2024-04-26T10:02:56.282Z,17.06
2024-04-26T10:05:24.333Z,16.58
2024-04-26T10:08:01.770Z,16.23
2024-04-26T10:10:34.715Z,15.90
2024-04-26T10:13:06.169Z,15.70
2024-04-26T10:15:34.089Z,15.55
2024-04-26T10:18:01.896Z,15.55
2024-04-26T10:20:29.699Z,16.41
2024-04-26T10:23:05.194Z,17.61
2024-04-26T10:25:33.191Z,18.28
2024-04-26T10:28:08.478Z,18.42
2024-04-26T10:30:37.541Z,18.24
2024-04-26T10:33:06.026Z,18.14
2024-04-26T10:35:33.670Z,19.00
2024-04-26T10:38:01.833Z,20.07
2024-04-26T10:40:30.012Z,21.12
2024-04-26T10:42:57.740Z,22.13
2024-04-26T10:45:25.490Z,22.68
2024-04-26T10:47:56.380Z,22.97
2024-04-26T10:50:24.181Z,23.20
2024-04-26T10:52:51.770Z,23.57
2024-04-26T10:55:19.794Z,24.26
2024-04-26T10:57:59.975Z,25.18
2024-04-26T11:00:40.699Z,24.81
2024-04-26T11:03:12.963Z,23.70
2024-04-26T11:05:45.546Z,22.85
2024-04-26T11:08:27.296Z,21.97
2024-04-26T11:10:55.509Z,21.05
2024-04-26T11:13:24.294Z,20.59
2024-04-26T11:15:52.914Z,20.17
2024-04-26T11:18:21.616Z,19.99
2024-04-26T11:20:49.663Z,19.72
2024-04-26T11:23:17.590Z,19.64
2024-04-26T11:25:45.336Z,19.69
2024-04-26T11:28:12.886Z,19.73
2024-04-26T11:30:41.012Z,19.65
2024-04-26T11:33:12.244Z,19.50
2024-04-26T11:35:43.854Z,21.13
2024-04-26T11:38:11.596Z,22.09
2024-04-26T11:40:39.163Z,21.13
2024-04-26T11:43:06.764Z,20.12
2024-04-26T11:45:34.324Z,19.42
2024-04-26T11:48:02.147Z,18.90
2024-04-26T11:50:29.894Z,18.46
2024-04-26T11:52:57.534Z,18.07
2024-04-26T11:55:25.554Z,17.68
2024-04-26T11:57:53.206Z,17.27
2024-04-26T12:00:21.250Z,16.95
2024-04-26T12:02:49.030Z,16.53
2024-04-26T12:05:17.006Z,16.13
2024-04-26T12:07:44.817Z,15.88
2024-04-26T12:10:12.812Z,15.67
2024-04-26T12:12:40.606Z,15.48
2024-04-26T12:15:09.939Z,15.30
2024-04-26T12:17:39.990Z,15.12
2024-04-26T12:20:07.950Z,15.00
2024-04-26T12:22:35.527Z,14.91
2024-04-26T12:25:03.698Z,14.94
2024-04-26T12:27:31.540Z,15.07
2024-04-26T12:29:59.203Z,15.25
2024-04-26T12:32:27.277Z,15.52
2024-04-26T12:34:55.302Z,15.83
2024-04-26T12:37:23.072Z,16.16
2024-04-26T12:39:51.702Z,16.83
2024-04-26T12:42:20.133Z,17.62
2024-04-26T12:44:50.212Z,17.75
2024-04-26T12:47:18.110Z,17.62
2024-04-26T12:49:45.873Z,17.60
2024-04-26T12:52:13.499Z,17.67
2024-04-26T12:54:41.493Z,17.80
2024-04-26T12:57:09.082Z,17.85
2024-04-26T12:59:36.678Z,17.95
2024-04-26T13:02:05.093Z,18.16
2024-04-26T13:04:37.200Z,18.32
2024-04-26T13:07:05.497Z,18.32
2024-04-26T13:09:33.829Z,18.34
2024-04-26T13:12:01.732Z,18.29
2024-04-26T13:14:29.558Z,18.23
2024-04-26T13:16:58.012Z,18.19
2024-04-26T13:19:25.820Z,18.17
2024-04-26T13:21:53.848Z,18.28
2024-04-26T13:24:21.562Z,18.60
2024-04-26T13:26:49.896Z,19.49
2024-04-26T13:29:21.789Z,21.44
2024-04-26T13:31:50.946Z,24.89
2024-04-26T13:34:19.086Z,27.89
2024-04-26T13:36:47.331Z,30.24
2024-04-26T13:39:15.536Z,32.15
2024-04-26T13:41:44.174Z,33.54
2024-04-26T13:44:13.353Z,32.57
2024-04-26T13:46:44.266Z,31.09
2024-04-26T13:49:12.678Z,29.47
2024-04-26T13:51:41.170Z,27.45
2024-04-26T13:54:12.587Z,25.83
2024-04-26T13:56:40.987Z,24.67
2024-04-26T13:59:09.181Z,23.81
2024-04-26T14:01:36.957Z,23.22
2024-04-26T14:04:05.009Z,22.63
2024-04-26T14:06:32.833Z,22.20
2024-04-26T14:09:00.744Z,21.83
2024-04-26T14:11:28.880Z,21.99
2024-04-26T14:13:57.016Z,22.54
2024-04-26T14:16:24.557Z,24.50
2024-04-26T14:18:52.189Z,27.08
2024-04-26T14:21:19.938Z,27.67
2024-04-26T14:23:47.836Z,26.11
2024-04-26T14:26:18.608Z,25.31
2024-04-26T14:28:46.406Z,27.36
2024-04-26T14:31:14.251Z,29.48
2024-04-26T14:33:46.486Z,31.04
2024-04-26T14:36:14.968Z,31.32
2024-04-26T14:38:42.691Z,29.32
2024-04-26T14:41:10.978Z,27.49
2024-04-26T14:43:39.526Z,25.82
2024-04-26T14:46:08.124Z,24.53
2024-04-26T14:48:35.793Z,23.49
2024-04-26T14:51:05.057Z,22.58
2024-04-26T14:53:33.006Z,22.19
2024-04-26T14:56:00.849Z,23.24
2024-04-26T14:58:28.807Z,24.52
2024-04-26T15:00:56.471Z,25.28
2024-04-26T15:03:24.622Z,25.36
2024-04-26T15:05:52.402Z,26.51
2024-04-26T15:08:20.146Z,28.28
2024-04-26T15:10:48.171Z,29.51
2024-04-26T15:13:16.484Z,29.31
2024-04-26T15:15:45.037Z,27.47
2024-04-26T15:18:12.936Z,25.77
2024-04-26T15:20:40.669Z,24.11
2024-04-26T15:23:08.339Z,22.69
2024-04-26T15:25:36.070Z,21.59
2024-04-26T15:28:04.376Z,21.14
2024-04-26T15:30:32.093Z,23.26
2024-04-26T15:32:59.774Z,25.56
2024-04-26T15:35:27.667Z,26.87
2024-04-26T15:37:55.683Z,26.28
2024-04-26T15:40:23.402Z,24.96
2024-04-26T15:42:51.509Z,23.88
2024-04-26T15:45:19.081Z,23.00
2024-04-26T15:47:46.685Z,23.59
2024-04-26T15:50:14.420Z,25.80
2024-04-26T15:52:42.280Z,27.82
2024-04-26T15:55:14.911Z,29.45
2024-04-26T15:57:44.479Z,30.78
2024-04-26T16:00:12.624Z,31.71
2024-04-26T16:02:40.443Z,32.37
2024-04-26T16:05:08.276Z,32.90
2024-04-26T16:07:36.714Z,33.21
2024-04-26T16:10:04.900Z,33.61
2024-04-26T16:12:32.546Z,33.87
2024-04-26T16:15:00.091Z,34.04
2024-04-26T16:17:27.777Z,34.05
2024-04-26T16:19:55.429Z,33.57
2024-04-26T16:22:23.145Z,33.51
2024-04-26T16:24:51.108Z,33.64
2024-04-26T16:27:18.760Z,33.73
2024-04-26T16:29:46.306Z,33.87
2024-04-26T16:32:13.833Z,33.73
2024-04-26T16:34:41.445Z,33.38
2024-04-26T16:37:09.200Z,32.93
2024-04-26T16:39:36.839Z,32.63
2024-04-26T16:42:04.895Z,31.99
2024-04-26T16:44:32.669Z,30.59
2024-04-26T16:47:00.592Z,29.80
2024-04-26T16:49:28.763Z,28.91
2024-04-26T16:51:56.432Z,27.16
2024-04-26T16:54:24.204Z,25.69
2024-04-26T16:56:51.814Z,25.30
2024-04-26T16:59:19.314Z,24.21
2024-04-26T17:01:46.856Z,23.05
2024-04-26T17:04:14.672Z,22.46
2024-04-26T17:06:42.563Z,21.62
2024-04-26T17:09:10.472Z,20.65
2024-04-26T17:11:44.778Z,19.79
2024-04-26T17:14:12.682Z,19.04
2024-04-26T17:16:40.878Z,18.42
2024-04-26T17:19:08.824Z,17.87
2024-04-26T17:21:40.840Z,17.40
2024-04-26T17:24:08.845Z,16.91
2024-04-26T17:26:36.620Z,16.47
2024-04-26T17:29:04.755Z,16.04
2024-04-26T17:31:38.700Z,15.67
2024-04-26T17:34:06.481Z,15.32
2024-04-26T17:36:34.956Z,14.98
2024-04-26T17:39:03.211Z,14.72
2024-04-26T17:41:30.877Z,14.47
2024-04-26T17:43:58.782Z,14.25
2024-04-26T17:46:26.619Z,14.04
2024-04-26T17:48:54.202Z,13.84
2024-04-26T17:51:22.322Z,13.65
2024-04-26T17:53:49.996Z,13.44
2024-04-26T17:56:17.570Z,13.26
2024-04-26T17:58:45.170Z,13.07
2024-04-26T18:01:13.460Z,12.88
2024-04-26T18:03:42.660Z,12.71
2024-04-26T18:06:10.328Z,12.54
2024-04-26T18:08:39.802Z,12.38
2024-04-26T18:11:13.633Z,12.22
2024-04-26T18:13:42.288Z,12.08
2024-04-26T18:16:19.410Z,11.93
2024-04-26T18:18:47.025Z,11.80
2024-04-26T18:21:21.083Z,11.69
2024-04-26T18:23:48.958Z,11.53
2024-04-26T18:26:16.545Z,11.43
2024-04-26T18:28:44.141Z,11.32
2024-04-26T18:31:12.038Z,11.23
2024-04-26T18:33:39.834Z,11.14
2024-04-26T18:36:15.612Z,11.05
2024-04-26T18:38:45.845Z,10.93
2024-04-26T18:41:13.836Z,10.83
2024-04-26T18:43:42.090Z,10.74
2024-04-26T18:46:11.646Z,10.66
2024-04-26T18:48:42.108Z,10.56
2024-04-26T18:51:13.772Z,10.47
2024-04-26T18:53:41.926Z,10.40
2024-04-26T18:56:10.511Z,10.32
2024-04-26T18:58:38.164Z,10.25
2024-04-26T19:01:05.869Z,10.17
2024-04-26T19:03:33.453Z,10.12
2024-04-26T19:06:01.800Z,10.07
2024-04-26T19:08:29.351Z,10.03
2024-04-26T19:10:56.960Z,9.95
2024-04-26T19:13:24.633Z,9.91
2024-04-26T19:15:52.643Z,9.85
2024-04-26T19:18:20.312Z,9.78
2024-04-26T19:20:48.947Z,9.71
2024-04-26T19:23:16.547Z,9.66
2024-04-26T19:25:44.184Z,9.60
2024-04-26T19:28:11.781Z,9.54
2024-04-26T19:30:49.039Z,9.51
2024-04-26T19:33:17.051Z,9.48
2024-04-26T19:35:45.039Z,9.42
2024-04-26T19:38:12.689Z,9.37
2024-04-26T19:40:40.611Z,9.34
2024-04-26T19:43:11.286Z,9.31
2024-04-26T19:45:39.398Z,9.28
2024-04-26T19:48:07.555Z,9.24
2024-04-26T19:50:35.254Z,9.18
2024-04-26T19:53:03.115Z,9.11
2024-04-26T19:55:31.439Z,9.04
2024-04-26T19:57:59.060Z,8.97
2024-04-26T20:00:26.713Z,8.89
2024-04-26T20:02:54.574Z,8.81
2024-04-26T20:05:22.508Z,8.70
2024-04-26T20:07:53.742Z,8.60
2024-04-26T20:10:21.563Z,8.53
2024-04-26T20:12:49.199Z,8.43
2024-04-26T20:15:16.826Z,8.33
2024-04-26T20:17:44.416Z,8.26
2024-04-26T20:20:12.239Z,8.19
2024-04-26T20:22:39.967Z,8.12
2024-04-26T20:25:07.711Z,8.08
2024-04-26T20:27:35.337Z,8.04
2024-04-26T20:30:03.315Z,8.01
2024-04-26T20:32:30.994Z,7.97
2024-04-26T20:34:58.714Z,7.96
2024-04-26T20:37:26.551Z,7.91
2024-04-26T20:39:54.162Z,7.86
2024-04-26T20:42:21.971Z,7.82
2024-04-26T20:44:49.594Z,7.78
2024-04-26T20:47:17.152Z,7.73
2024-04-26T20:49:47.112Z,7.69
2024-04-26T20:52:14.838Z,7.63
2024-04-26T20:54:42.441Z,7.60
2024-04-26T20:57:10.785Z,7.57
2024-04-26T20:59:38.336Z,7.53
2024-04-26T21:02:08.799Z,7.49
2024-04-26T21:04:36.740Z,7.46
2024-04-26T21:07:04.456Z,7.43
2024-04-26T21:09:32.100Z,7.40
2024-04-26T21:11:59.665Z,7.36
2024-04-26T21:14:27.280Z,7.33
2024-04-26T21:16:54.936Z,7.29
2024-04-26T21:19:22.703Z,7.22
2024-04-26T21:21:50.564Z,7.15
2024-04-26T21:24:18.215Z,7.12
2024-04-26T21:26:45.794Z,7.07
2024-04-26T21:29:13.643Z,7.02
2024-04-26T21:31:41.891Z,6.96
2024-04-26T21:34:09.462Z,6.90
2024-04-26T21:36:41.017Z,6.85
2024-04-26T21:39:09.530Z,6.81
2024-04-26T21:41:39.704Z,6.79
2024-04-26T21:44:07.381Z,6.77
2024-04-26T21:46:35.364Z,6.74
2024-04-26T21:49:03.252Z,6.70
2024-04-26T21:51:30.946Z,6.66
2024-04-26T21:54:01.857Z,6.62
2024-04-26T21:56:30.505Z,6.58
2024-04-26T21:59:07.092Z,6.54
2024-04-26T22:01:45.592Z,6.50
2024-04-26T22:04:13.161Z,6.48
2024-04-26T22:06:40.822Z,6.50
2024-04-26T22:09:08.532Z,6.51
2024-04-26T22:11:36.195Z,6.51
2024-04-26T22:14:03.876Z,6.52
2024-04-26T22:16:31.644Z,6.52
2024-04-26T22:18:59.198Z,6.53
2024-04-26T22:21:26.863Z,6.54
2024-04-26T22:23:54.627Z,6.55
2024-04-26T22:26:22.229Z,6.57
2024-04-26T22:28:49.880Z,6.57
2024-04-26T22:31:17.523Z,6.59
2024-04-26T22:33:45.126Z,6.60
2024-04-26T22:36:12.771Z,6.63
2024-04-26T22:38:40.661Z,6.63
2024-04-26T22:41:09.465Z,6.62
2024-04-26T22:43:37.105Z,6.61
2024-04-26T22:46:06.690Z,6.60
2024-04-26T22:48:34.478Z,6.59
2024-04-26T22:51:02.112Z,6.58
2024-04-26T22:53:29.802Z,6.57
2024-04-26T22:55:57.501Z,6.57
2024-04-26T22:58:25.419Z,6.56
2024-04-26T23:00:53.051Z,6.52
2024-04-26T23:03:20.690Z,6.48
2024-04-26T23:05:48.369Z,6.43
2024-04-26T23:08:16.139Z,6.37
2024-04-26T23:10:43.807Z,6.32
2024-04-26T23:13:11.541Z,6.26
2024-04-26T23:15:39.229Z,6.22
2024-04-26T23:18:06.882Z,6.18
2024-04-26T23:20:34.499Z,6.14
2024-04-26T23:23:02.100Z,6.09
2024-04-26T23:25:29.735Z,6.04
2024-04-26T23:27:57.248Z,5.99
2024-04-26T23:30:24.972Z,5.93
2024-04-26T23:32:52.756Z,5.86
2024-04-26T23:35:20.465Z,5.81
2024-04-26T23:37:48.072Z,5.77
2024-04-26T23:40:15.640Z,5.72
2024-04-26T23:42:43.235Z,5.69
2024-04-26T23:45:10.981Z,5.67
2024-04-26T23:47:38.579Z,5.64
2024-04-26T23:50:06.387Z,5.61
2024-04-26T23:52:34.074Z,5.59
2024-04-26T23:55:01.737Z,5.57
2024-04-26T23:57:29.360Z,5.54
2024-04-26T23:59:56.886Z,5.50
